sensor_id;sensor_type;location;lat;lon;timestamp;P1;durP1;ratioP1;P2;durP2;ratioP2
17596;SDS011;8917;50.942;6.946;2023-04-06T00:00:18;14.37;;;10.53;;
17596;SDS011;8917;50.942;6.946;2023-04-06T00:02:46;17.43;;;11.77;;
17596;SDS011;8917;50.942;6.946;2023-04-06T00:05:13;14.77;;;11.23;;
17596;SDS011;8917;50.942;6.946;2023-04-06T00:07:41;14.53;;;10.90;;
17596;SDS011;8917;50.942;6.946;2023-04-06T00:10:10;14.93;;;11.30;;
17596;SDS011;8917;50.942;6.946;2023-04-06T00:12:37;14.80;;;10.87;;
17596;SDS011;8917;50.942;6.946;2023-04-06T00:15:04;19.70;;;12.13;;
17596;SDS011;8917;50.942;6.946;2023-04-06T00:17:32;16.50;;;11.77;;
17596;SDS011;8917;50.942;6.946;2023-04-06T00:19:59;16.60;;;11.80;;
17596;SDS011;8917;50.942;6.946;2023-04-06T00:22:26;17.57;;;12.77;;
17596;SDS011;8917;50.942;6.946;2023-04-06T00:24:53;14.93;;;11.53;;
17596;SDS011;8917;50.942;6.946;2023-04-06T00:27:22;17.30;;;12.03;;
17596;SDS011;8917;50.942;6.946;2023-04-06T00:29:49;14.07;;;11.20;;
17596;SDS011;8917;50.942;6.946;2023-04-06T00:32:16;14.30;;;10.43;;
17596;SDS011;8917;50.942;6.946;2023-04-06T00:34:43;13.03;;;10.43;;
17596;SDS011;8917;50.942;6.946;2023-04-06T00:37:14;12.93;;;9.83;;
17596;SDS011;8917;50.942;6.946;2023-04-06T00:39:41;12.63;;;9.33;;
17596;SDS011;8917;50.942;6.946;2023-04-06T00:42:10;13.67;;;9.53;;
17596;SDS011;8917;50.942;6.946;2023-04-06T00:44:40;14.57;;;9.60;;
17596;SDS011;8917;50.942;6.946;2023-04-06T00:47:07;12.40;;;9.17;;
17596;SDS011;8917;50.942;6.946;2023-04-06T00:49:34;12.03;;;9.27;;
17596;SDS011;8917;50.942;6.946;2023-04-06T00:52:02;11.03;;;8.77;;
17596;SDS011;8917;50.942;6.946;2023-04-06T00:54:29;11.97;;;9.03;;
17596;SDS011;8917;50.942;6.946;2023-04-06T00:56:56;9.90;;;8.90;;
17596;SDS011;8917;50.942;6.946;2023-04-06T00:59:24;10.13;;;8.37;;
17596;SDS011;8917;50.942;6.946;2023-04-06T01:01:52;10.43;;;8.57;;
17596;SDS011;8917;50.942;6.946;2023-04-06T01:04:20;9.20;;;7.83;;
17596;SDS011;8917;50.942;6.946;2023-04-06T01:06:48;10.67;;;7.90;;
17596;SDS011;8917;50.942;6.946;2023-04-06T01:09:15;12.87;;;8.47;;
17596;SDS011;8917;50.942;6.946;2023-04-06T01:11:43;8.40;;;7.47;;
17596;SDS011;8917;50.942;6.946;2023-04-06T01:14:10;9.27;;;8.20;;
17596;SDS011;8917;50.942;6.946;2023-04-06T01:16:39;11.73;;;8.10;;
17596;SDS011;8917;50.942;6.946;2023-04-06T01:19:09;9.97;;;7.43;;
17596;SDS011;8917;50.942;6.946;2023-04-06T01:21:39;9.33;;;7.90;;
17596;SDS011;8917;50.942;6.946;2023-04-06T01:24:08;8.97;;;7.83;;
17596;SDS011;8917;50.942;6.946;2023-04-06T01:26:36;9.67;;;7.97;;
17596;SDS011;8917;50.942;6.946;2023-04-06T01:29:08;8.10;;;7.30;;
17596;SDS011;8917;50.942;6.946;2023-04-06T01:31:35;8.70;;;7.40;;
17596;SDS011;8917;50.942;6.946;2023-04-06T01:34:02;7.90;;;6.87;;
17596;SDS011;8917;50.942;6.946;2023-04-06T01:36:30;8.73;;;7.00;;
17596;SDS011;8917;50.942;6.946;2023-04-06T01:38:59;12.87;;;7.40;;
17596;SDS011;8917;50.942;6.946;2023-04-06T01:41:29;8.23;;;6.63;;
17596;SDS011;8917;50.942;6.946;2023-04-06T01:43:59;7.63;;;6.40;;
17596;SDS011;8917;50.942;6.946;2023-04-06T01:46:29;10.07;;;6.90;;
17596;SDS011;8917;50.942;6.946;2023-04-06T01:48:57;8.43;;;6.83;;
17596;SDS011;8917;50.942;6.946;2023-04-06T01:51:24;9.40;;;6.83;;
17596;SDS011;8917;50.942;6.946;2023-04-06T01:53:52;7.47;;;6.20;;
17596;SDS011;8917;50.942;6.946;2023-04-06T01:56:21;8.17;;;6.73;;
17596;SDS011;8917;50.942;6.946;2023-04-06T01:58:50;7.97;;;6.63;;
17596;SDS011;8917;50.942;6.946;2023-04-06T02:01:18;8.30;;;7.00;;
17596;SDS011;8917;50.942;6.946;2023-04-06T02:03:48;7.57;;;6.80;;
17596;SDS011;8917;50.942;6.946;2023-04-06T02:06:15;7.73;;;6.33;;
17596;SDS011;8917;50.942;6.946;2023-04-06T02:08:42;9.23;;;6.77;;
17596;SDS011;8917;50.942;6.946;2023-04-06T02:11:12;7.23;;;6.30;;
17596;SDS011;8917;50.942;6.946;2023-04-06T02:13:42;9.77;;;7.07;;
17596;SDS011;8917;50.942;6.946;2023-04-06T02:16:11;8.30;;;6.57;;
17596;SDS011;8917;50.942;6.946;2023-04-06T02:18:41;9.27;;;6.73;;
17596;SDS011;8917;50.942;6.946;2023-04-06T02:21:08;7.50;;;6.77;;
17596;SDS011;8917;50.942;6.946;2023-04-06T02:23:37;7.50;;;6.73;;
17596;SDS011;8917;50.942;6.946;2023-04-06T02:26:05;9.87;;;7.00;;
17596;SDS011;8917;50.942;6.946;2023-04-06T02:28:32;7.77;;;6.77;;
17596;SDS011;8917;50.942;6.946;2023-04-06T02:31:00;8.03;;;6.87;;
17596;SDS011;8917;50.942;6.946;2023-04-06T02:33:31;8.10;;;6.87;;
17596;SDS011;8917;50.942;6.946;2023-04-06T02:36:04;8.07;;;7.27;;
17596;SDS011;8917;50.942;6.946;2023-04-06T02:38:37;7.20;;;6.50;;
17596;SDS011;8917;50.942;6.946;2023-04-06T02:41:05;7.63;;;6.87;;
17596;SDS011;8917;50.942;6.946;2023-04-06T02:43:34;9.23;;;6.93;;
17596;SDS011;8917;50.942;6.946;2023-04-06T02:46:02;9.33;;;6.70;;
17596;SDS011;8917;50.942;6.946;2023-04-06T02:48:31;7.77;;;6.90;;
17596;SDS011;8917;50.942;6.946;2023-04-06T02:51:01;7.70;;;6.77;;
17596;SDS011;8917;50.942;6.946;2023-04-06T02:53:31;8.87;;;6.97;;
17596;SDS011;8917;50.942;6.946;2023-04-06T02:55:58;7.13;;;6.37;;
17596;SDS011;8917;50.942;6.946;2023-04-06T02:58:27;8.20;;;6.87;;
17596;SDS011;8917;50.942;6.946;2023-04-06T03:00:54;8.57;;;6.50;;
17596;SDS011;8917;50.942;6.946;2023-04-06T03:03:27;8.40;;;6.63;;
17596;SDS011;8917;50.942;6.946;2023-04-06T03:05:59;9.37;;;6.70;;
17596;SDS011;8917;50.942;6.946;2023-04-06T03:08:46;7.63;;;6.53;;
17596;SDS011;8917;50.942;6.946;2023-04-06T03:11:13;7.97;;;6.53;;
17596;SDS011;8917;50.942;6.946;2023-04-06T03:13:40;9.67;;;7.00;;
17596;SDS011;8917;50.942;6.946;2023-04-06T03:16:08;7.07;;;6.37;;
17596;SDS011;8917;50.942;6.946;2023-04-06T03:18:35;10.33;;;6.37;;
17596;SDS011;8917;50.942;6.946;2023-04-06T03:21:05;8.43;;;6.77;;
17596;SDS011;8917;50.942;6.946;2023-04-06T03:23:33;8.10;;;7.20;;
17596;SDS011;8917;50.942;6.946;2023-04-06T03:26:00;9.67;;;7.20;;
17596;SDS011;8917;50.942;6.946;2023-04-06T03:28:28;9.20;;;6.67;;
17596;SDS011;8917;50.942;6.946;2023-04-06T03:30:56;7.40;;;6.60;;
17596;SDS011;8917;50.942;6.946;2023-04-06T03:33:26;10.77;;;6.67;;
17596;SDS011;8917;50.942;6.946;2023-04-06T03:35:53;8.60;;;7.30;;
17596;SDS011;8917;50.942;6.946;2023-04-06T03:38:22;8.67;;;6.93;;
17596;SDS011;8917;50.942;6.946;2023-04-06T03:40:50;10.10;;;6.80;;
17596;SDS011;8917;50.942;6.946;2023-04-06T03:43:17;9.67;;;7.07;;
17596;SDS011;8917;50.942;6.946;2023-04-06T03:45:45;11.80;;;7.40;;
17596;SDS011;8917;50.942;6.946;2023-04-06T03:48:12;7.77;;;6.90;;
17596;SDS011;8917;50.942;6.946;2023-04-06T03:50:39;9.30;;;6.77;;
17596;SDS011;8917;50.942;6.946;2023-04-06T03:53:16;8.97;;;7.13;;
17596;SDS011;8917;50.942;6.946;2023-04-06T03:55:45;8.47;;;6.73;;
17596;SDS011;8917;50.942;6.946;2023-04-06T03:58:15;9.47;;;6.70;;
17596;SDS011;8917;50.942;6.946;2023-04-06T04:00:42;9.07;;;6.57;;
17596;SDS011;8917;50.942;6.946;2023-04-06T04:03:10;7.83;;;6.47;;
17596;SDS011;8917;50.942;6.946;2023-04-06T04:05:39;8.17;;;6.83;;
17596;SDS011;8917;50.942;6.946;2023-04-06T04:08:13;8.17;;;6.90;;
17596;SDS011;8917;50.942;6.946;2023-04-06T04:10:42;7.40;;;6.63;;
17596;SDS011;8917;50.942;6.946;2023-04-06T04:13:11;7.77;;;6.83;;
17596;SDS011;8917;50.942;6.946;2023-04-06T04:15:38;9.03;;;7.23;;
17596;SDS011;8917;50.942;6.946;2023-04-06T04:18:08;7.93;;;6.73;;
17596;SDS011;8917;50.942;6.946;2023-04-06T04:20:35;9.10;;;6.73;;
17596;SDS011;8917;50.942;6.946;2023-04-06T04:23:03;8.67;;;7.27;;
17596;SDS011;8917;50.942;6.946;2023-04-06T04:25:31;8.90;;;6.60;;
17596;SDS011;8917;50.942;6.946;2023-04-06T04:27:58;9.97;;;7.27;;
17596;SDS011;8917;50.942;6.946;2023-04-06T04:30:26;8.13;;;6.87;;
17596;SDS011;8917;50.942;6.946;2023-04-06T04:32:54;9.10;;;6.67;;
17596;SDS011;8917;50.942;6.946;2023-04-06T04:35:21;9.23;;;7.07;;
17596;SDS011;8917;50.942;6.946;2023-04-06T04:37:50;11.10;;;7.60;;
17596;SDS011;8917;50.942;6.946;2023-04-06T04:40:20;9.17;;;7.40;;
17596;SDS011;8917;50.942;6.946;2023-04-06T04:42:54;8.47;;;6.80;;
17596;SDS011;8917;50.942;6.946;2023-04-06T04:45:22;7.10;;;6.40;;
17596;SDS011;8917;50.942;6.946;2023-04-06T04:47:50;9.57;;;7.23;;
17596;SDS011;8917;50.942;6.946;2023-04-06T04:50:18;10.83;;;6.67;;
17596;SDS011;8917;50.942;6.946;2023-04-06T04:52:45;10.77;;;8.10;;
17596;SDS011;8917;50.942;6.946;2023-04-06T04:55:13;7.80;;;6.80;;
17596;SDS011;8917;50.942;6.946;2023-04-06T04:57:43;8.87;;;6.60;;
17596;SDS011;8917;50.942;6.946;2023-04-06T05:00:11;9.40;;;6.73;;
17596;SDS011;8917;50.942;6.946;2023-04-06T05:02:39;10.53;;;6.77;;
17596;SDS011;8917;50.942;6.946;2023-04-06T05:05:08;9.63;;;6.63;;
17596;SDS011;8917;50.942;6.946;2023-04-06T05:07:35;12.20;;;7.33;;
17596;SDS011;8917;50.942;6.946;2023-04-06T05:10:02;8.70;;;6.50;;
17596;SDS011;8917;50.942;6.946;2023-04-06T05:12:30;7.87;;;6.80;;
17596;SDS011;8917;50.942;6.946;2023-04-06T05:14:59;7.77;;;6.57;;
17596;SDS011;8917;50.942;6.946;2023-04-06T05:17:27;10.40;;;7.27;;
17596;SDS011;8917;50.942;6.946;2023-04-06T05:19:55;10.57;;;6.80;;
17596;SDS011;8917;50.942;6.946;2023-04-06T05:22:24;10.37;;;6.90;;
17596;SDS011;8917;50.942;6.946;2023-04-06T05:24:54;11.77;;;7.63;;
17596;SDS011;8917;50.942;6.946;2023-04-06T05:27:21;11.73;;;7.90;;
17596;SDS011;8917;50.942;6.946;2023-04-06T05:29:48;11.60;;;7.67;;
17596;SDS011;8917;50.942;6.946;2023-04-06T05:32:21;15.97;;;7.80;;
17596;SDS011;8917;50.942;6.946;2023-04-06T05:34:49;14.40;;;7.50;;
17596;SDS011;8917;50.942;6.946;2023-04-06T05:37:17;13.07;;;8.40;;
17596;SDS011;8917;50.942;6.946;2023-04-06T05:39:45;9.87;;;7.17;;
17596;SDS011;8917;50.942;6.946;2023-04-06T05:42:19;12.33;;;7.23;;
17596;SDS011;8917;50.942;6.946;2023-04-06T05:44:47;15.70;;;7.30;;
17596;SDS011;8917;50.942;6.946;2023-04-06T05:47:15;8.83;;;6.90;;
17596;SDS011;8917;50.942;6.946;2023-04-06T05:49:51;11.97;;;6.93;;
17596;SDS011;8917;50.942;6.946;2023-04-06T05:52:19;7.23;;;6.50;;
17596;SDS011;8917;50.942;6.946;2023-04-06T05:54:50;9.50;;;6.97;;
17596;SDS011;8917;50.942;6.946;2023-04-06T05:57:17;9.87;;;6.63;;
17596;SDS011;8917;50.942;6.946;2023-04-06T05:59:45;8.57;;;6.47;;
17596;SDS011;8917;50.942;6.946;2023-04-06T06:02:16;19.60;;;13.50;;
17596;SDS011;8917;50.942;6.946;2023-04-06T06:04:43;7.23;;;6.53;;
17596;SDS011;8917;50.942;6.946;2023-04-06T06:07:11;8.80;;;6.50;;
17596;SDS011;8917;50.942;6.946;2023-04-06T06:09:38;10.33;;;7.40;;
17596;SDS011;8917;50.942;6.946;2023-04-06T06:12:09;9.17;;;7.10;;
17596;SDS011;8917;50.942;6.946;2023-04-06T06:14:37;8.77;;;7.03;;
17596;SDS011;8917;50.942;6.946;2023-04-06T06:17:04;8.10;;;7.07;;
17596;SDS011;8917;50.942;6.946;2023-04-06T06:19:34;7.00;;;6.30;;
17596;SDS011;8917;50.942;6.946;2023-04-06T06:22:02;11.10;;;6.70;;
17596;SDS011;8917;50.942;6.946;2023-04-06T06:24:30;8.70;;;7.43;;
17596;SDS011;8917;50.942;6.946;2023-04-06T06:26:57;11.10;;;7.40;;
17596;SDS011;8917;50.942;6.946;2023-04-06T06:29:33;8.00;;;6.70;;
17596;SDS011;8917;50.942;6.946;2023-04-06T06:32:00;9.37;;;7.17;;
17596;SDS011;8917;50.942;6.946;2023-04-06T06:34:30;9.73;;;7.27;;
17596;SDS011;8917;50.942;6.946;2023-04-06T06:36:57;9.30;;;7.77;;
17596;SDS011;8917;50.942;6.946;2023-04-06T06:39:25;9.43;;;7.70;;
17596;SDS011;8917;50.942;6.946;2023-04-06T06:41:53;10.27;;;7.27;;
17596;SDS011;8917;50.942;6.946;2023-04-06T06:44:20;9.10;;;7.27;;
17596;SDS011;8917;50.942;6.946;2023-04-06T06:46:49;11.50;;;7.47;;
17596;SDS011;8917;50.942;6.946;2023-04-06T06:49:16;9.93;;;7.10;;
17596;SDS011;8917;50.942;6.946;2023-04-06T06:51:46;9.37;;;7.00;;
17596;SDS011;8917;50.942;6.946;2023-04-06T06:54:14;19.97;;;8.97;;
17596;SDS011;8917;50.942;6.946;2023-04-06T06:56:41;9.87;;;7.50;;
17596;SDS011;8917;50.942;6.946;2023-04-06T06:59:08;15.63;;;8.63;;
17596;SDS011;8917;50.942;6.946;2023-04-06T07:01:36;12.87;;;8.50;;
17596;SDS011;8917;50.942;6.946;2023-04-06T07:04:05;16.03;;;10.17;;
17596;SDS011;8917;50.942;6.946;2023-04-06T07:06:36;8.50;;;7.33;;
17596;SDS011;8917;50.942;6.946;2023-04-06T07:09:03;10.80;;;7.87;;
17596;SDS011;8917;50.942;6.946;2023-04-06T07:11:30;11.93;;;7.40;;
17596;SDS011;8917;50.942;6.946;2023-04-06T07:14:00;9.53;;;7.40;;
17596;SDS011;8917;50.942;6.946;2023-04-06T07:16:30;12.53;;;7.47;;
17596;SDS011;8917;50.942;6.946;2023-04-06T07:18:57;9.97;;;7.93;;
17596;SDS011;8917;50.942;6.946;2023-04-06T07:21:33;11.00;;;7.63;;
17596;SDS011;8917;50.942;6.946;2023-04-06T07:24:02;9.43;;;7.80;;
17596;SDS011;8917;50.942;6.946;2023-04-06T07:26:29;10.97;;;7.47;;
17596;SDS011;8917;50.942;6.946;2023-04-06T07:28:57;9.87;;;7.67;;
17596;SDS011;8917;50.942;6.946;2023-04-06T07:31:24;10.00;;;7.90;;
17596;SDS011;8917;50.942;6.946;2023-04-06T07:33:52;12.13;;;8.20;;
17596;SDS011;8917;50.942;6.946;2023-04-06T07:36:21;9.63;;;7.90;;
17596;SDS011;8917;50.942;6.946;2023-04-06T07:38:50;9.50;;;7.23;;
17596;SDS011;8917;50.942;6.946;2023-04-06T07:41:18;9.10;;;7.77;;
17596;SDS011;8917;50.942;6.946;2023-04-06T07:43:45;10.07;;;7.63;;
17596;SDS011;8917;50.942;6.946;2023-04-06T07:46:20;9.23;;;7.57;;
17596;SDS011;8917;50.942;6.946;2023-04-06T07:48:48;10.73;;;8.07;;
17596;SDS011;8917;50.942;6.946;2023-04-06T07:51:16;9.40;;;7.63;;
17596;SDS011;8917;50.942;6.946;2023-04-06T07:53:44;10.00;;;7.60;;
17596;SDS011;8917;50.942;6.946;2023-04-06T07:56:12;10.70;;;7.77;;
17596;SDS011;8917;50.942;6.946;2023-04-06T07:58:41;11.33;;;7.97;;
17596;SDS011;8917;50.942;6.946;2023-04-06T08:01:11;10.03;;;7.60;;
17596;SDS011;8917;50.942;6.946;2023-04-06T08:03:39;11.17;;;8.40;;
17596;SDS011;8917;50.942;6.946;2023-04-06T08:06:08;10.07;;;8.10;;
17596;SDS011;8917;50.942;6.946;2023-04-06T08:08:35;9.60;;;8.43;;
17596;SDS011;8917;50.942;6.946;2023-04-06T08:11:03;9.90;;;7.97;;
17596;SDS011;8917;50.942;6.946;2023-04-06T08:13:34;10.97;;;7.93;;
17596;SDS011;8917;50.942;6.946;2023-04-06T08:16:01;13.73;;;8.03;;
17596;SDS011;8917;50.942;6.946;2023-04-06T08:18:32;9.63;;;7.90;;
17596;SDS011;8917;50.942;6.946;2023-04-06T08:20:59;11.80;;;8.23;;
17596;SDS011;8917;50.942;6.946;2023-04-06T08:23:26;12.27;;;9.03;;
17596;SDS011;8917;50.942;6.946;2023-04-06T08:25:53;12.07;;;8.90;;
17596;SDS011;8917;50.942;6.946;2023-04-06T08:28:21;9.47;;;8.10;;
17596;SDS011;8917;50.942;6.946;2023-04-06T08:30:58;11.07;;;8.23;;
17596;SDS011;8917;50.942;6.946;2023-04-06T08:33:25;13.83;;;8.60;;
17596;SDS011;8917;50.942;6.946;2023-04-06T08:35:55;11.03;;;9.20;;
17596;SDS011;8917;50.942;6.946;2023-04-06T08:38:23;14.50;;;9.20;;
17596;SDS011;8917;50.942;6.946;2023-04-06T08:40:53;13.93;;;8.53;;
17596;SDS011;8917;50.942;6.946;2023-04-06T08:43:21;10.07;;;8.67;;
17596;SDS011;8917;50.942;6.946;2023-04-06T08:45:49;12.17;;;8.63;;
17596;SDS011;8917;50.942;6.946;2023-04-06T08:48:20;12.40;;;8.97;;
17596;SDS011;8917;50.942;6.946;2023-04-06T08:50:49;10.63;;;8.63;;
17596;SDS011;8917;50.942;6.946;2023-04-06T08:53:16;13.53;;;8.97;;
17596;SDS011;8917;50.942;6.946;2023-04-06T08:55:43;11.70;;;9.17;;
17596;SDS011;8917;50.942;6.946;2023-04-06T08:58:13;14.17;;;10.33;;
17596;SDS011;8917;50.942;6.946;2023-04-06T09:00:41;13.03;;;9.60;;
17596;SDS011;8917;50.942;6.946;2023-04-06T09:03:08;11.50;;;8.97;;
17596;SDS011;8917;50.942;6.946;2023-04-06T09:05:43;14.07;;;8.83;;
17596;SDS011;8917;50.942;6.946;2023-04-06T09:08:13;13.70;;;9.80;;
17596;SDS011;8917;50.942;6.946;2023-04-06T09:10:41;13.23;;;9.90;;
17596;SDS011;8917;50.942;6.946;2023-04-06T09:13:08;13.20;;;9.77;;
17596;SDS011;8917;50.942;6.946;2023-04-06T09:15:36;16.13;;;9.30;;
17596;SDS011;8917;50.942;6.946;2023-04-06T09:18:04;12.80;;;9.23;;
17596;SDS011;8917;50.942;6.946;2023-04-06T09:20:33;14.33;;;9.43;;
17596;SDS011;8917;50.942;6.946;2023-04-06T09:23:01;13.20;;;9.33;;
17596;SDS011;8917;50.942;6.946;2023-04-06T09:25:29;11.27;;;9.27;;
17596;SDS011;8917;50.942;6.946;2023-04-06T09:28:01;15.83;;;9.70;;
17596;SDS011;8917;50.942;6.946;2023-04-06T09:30:28;15.57;;;12.53;;
17596;SDS011;8917;50.942;6.946;2023-04-06T09:32:56;14.30;;;9.60;;
17596;SDS011;8917;50.942;6.946;2023-04-06T09:35:25;14.80;;;10.27;;
17596;SDS011;8917;50.942;6.946;2023-04-06T09:37:54;12.43;;;9.40;;
17596;SDS011;8917;50.942;6.946;2023-04-06T09:40:23;14.07;;;10.53;;
17596;SDS011;8917;50.942;6.946;2023-04-06T09:42:55;15.63;;;10.10;;
17596;SDS011;8917;50.942;6.946;2023-04-06T09:45:24;11.97;;;9.10;;
17596;SDS011;8917;50.942;6.946;2023-04-06T09:47:52;14.93;;;10.10;;
17596;SDS011;8917;50.942;6.946;2023-04-06T09:50:26;15.63;;;10.17;;
17596;SDS011;8917;50.942;6.946;2023-04-06T09:52:54;14.17;;;10.00;;
17596;SDS011;8917;50.942;6.946;2023-04-06T09:55:26;11.23;;;9.27;;
17596;SDS011;8917;50.942;6.946;2023-04-06T09:57:58;14.70;;;10.80;;
17596;SDS011;8917;50.942;6.946;2023-04-06T10:00:28;12.47;;;9.57;;
17596;SDS011;8917;50.942;6.946;2023-04-06T10:03:02;14.03;;;10.13;;
17596;SDS011;8917;50.942;6.946;2023-04-06T10:05:33;12.87;;;9.47;;
17596;SDS011;8917;50.942;6.946;2023-04-06T10:08:05;14.67;;;10.80;;
17596;SDS011;8917;50.942;6.946;2023-04-06T10:10:34;14.57;;;9.60;;
17596;SDS011;8917;50.942;6.946;2023-04-06T10:13:02;14.63;;;10.33;;
17596;SDS011;8917;50.942;6.946;2023-04-06T10:15:32;13.23;;;9.67;;
17596;SDS011;8917;50.942;6.946;2023-04-06T10:18:00;15.23;;;9.87;;
17596;SDS011;8917;50.942;6.946;2023-04-06T10:20:29;16.57;;;9.53;;
17596;SDS011;8917;50.942;6.946;2023-04-06T10:22:58;17.77;;;11.23;;
17596;SDS011;8917;50.942;6.946;2023-04-06T10:25:27;16.67;;;10.80;;
17596;SDS011;8917;50.942;6.946;2023-04-06T10:28:04;15.53;;;10.17;;
17596;SDS011;8917;50.942;6.946;2023-04-06T10:30:33;16.20;;;10.20;;
17596;SDS011;8917;50.942;6.946;2023-04-06T10:33:01;15.47;;;9.30;;
17596;SDS011;8917;50.942;6.946;2023-04-06T10:35:41;16.93;;;10.40;;
17596;SDS011;8917;50.942;6.946;2023-04-06T10:38:08;16.00;;;9.97;;
17596;SDS011;8917;50.942;6.946;2023-04-06T10:40:37;18.00;;;11.53;;
17596;SDS011;8917;50.942;6.946;2023-04-06T10:43:10;15.37;;;10.57;;
17596;SDS011;8917;50.942;6.946;2023-04-06T10:45:40;18.63;;;10.70;;
17596;SDS011;8917;50.942;6.946;2023-04-06T10:48:16;15.70;;;11.10;;
17596;SDS011;8917;50.942;6.946;2023-04-06T10:50:44;16.50;;;10.77;;
17596;SDS011;8917;50.942;6.946;2023-04-06T10:53:21;16.37;;;10.33;;
17596;SDS011;8917;50.942;6.946;2023-04-06T10:55:49;16.77;;;11.10;;
17596;SDS011;8917;50.942;6.946;2023-04-06T10:58:18;15.43;;;10.47;;
17596;SDS011;8917;50.942;6.946;2023-04-06T11:00:48;14.20;;;9.73;;
17596;SDS011;8917;50.942;6.946;2023-04-06T11:03:16;17.40;;;10.40;;
17596;SDS011;8917;50.942;6.946;2023-04-06T11:05:43;16.60;;;11.60;;
17596;SDS011;8917;50.942;6.946;2023-04-06T11:08:21;15.97;;;11.40;;
17596;SDS011;8917;50.942;6.946;2023-04-06T11:10:49;17.67;;;9.83;;
17596;SDS011;8917;50.942;6.946;2023-04-06T11:13:20;15.30;;;10.63;;
17596;SDS011;8917;50.942;6.946;2023-04-06T11:15:47;17.33;;;10.40;;
17596;SDS011;8917;50.942;6.946;2023-04-06T11:18:17;17.30;;;10.10;;
17596;SDS011;8917;50.942;6.946;2023-04-06T11:20:47;18.73;;;11.20;;
17596;SDS011;8917;50.942;6.946;2023-04-06T11:23:21;14.50;;;10.20;;
17596;SDS011;8917;50.942;6.946;2023-04-06T11:25:50;18.10;;;11.23;;
17596;SDS011;8917;50.942;6.946;2023-04-06T11:28:19;16.40;;;11.03;;
17596;SDS011;8917;50.942;6.946;2023-04-06T11:30:49;17.37;;;11.57;;
17596;SDS011;8917;50.942;6.946;2023-04-06T11:33:22;19.90;;;11.37;;
17596;SDS011;8917;50.942;6.946;2023-04-06T11:35:52;17.23;;;11.00;;
17596;SDS011;8917;50.942;6.946;2023-04-06T11:38:19;15.37;;;11.17;;
17596;SDS011;8917;50.942;6.946;2023-04-06T11:40:46;16.77;;;11.23;;
17596;SDS011;8917;50.942;6.946;2023-04-06T11:43:13;16.90;;;11.57;;
17596;SDS011;8917;50.942;6.946;2023-04-06T11:45:42;15.20;;;9.80;;
17596;SDS011;8917;50.942;6.946;2023-04-06T11:48:20;17.07;;;10.53;;
17596;SDS011;8917;50.942;6.946;2023-04-06T11:50:48;16.33;;;10.53;;
17596;SDS011;8917;50.942;6.946;2023-04-06T11:53:17;16.97;;;11.20;;
17596;SDS011;8917;50.942;6.946;2023-04-06T11:55:45;16.70;;;11.07;;
17596;SDS011;8917;50.942;6.946;2023-04-06T11:58:12;17.40;;;10.63;;
17596;SDS011;8917;50.942;6.946;2023-04-06T12:00:40;15.83;;;10.07;;
17596;SDS011;8917;50.942;6.946;2023-04-06T12:03:13;18.27;;;10.60;;
17596;SDS011;8917;50.942;6.946;2023-04-06T12:05:43;16.93;;;10.73;;
17596;SDS011;8917;50.942;6.946;2023-04-06T12:08:11;13.70;;;9.53;;
17596;SDS011;8917;50.942;6.946;2023-04-06T12:10:40;15.13;;;9.97;;
17596;SDS011;8917;50.942;6.946;2023-04-06T12:13:08;16.20;;;10.00;;
17596;SDS011;8917;50.942;6.946;2023-04-06T12:15:38;14.50;;;10.00;;
17596;SDS011;8917;50.942;6.946;2023-04-06T12:18:06;13.30;;;9.80;;
17596;SDS011;8917;50.942;6.946;2023-04-06T12:20:35;16.17;;;10.13;;
17596;SDS011;8917;50.942;6.946;2023-04-06T12:23:02;14.13;;;8.97;;
17596;SDS011;8917;50.942;6.946;2023-04-06T12:25:29;14.17;;;8.87;;
17596;SDS011;8917;50.942;6.946;2023-04-06T12:27:57;15.50;;;9.70;;
17596;SDS011;8917;50.942;6.946;2023-04-06T12:30:27;15.93;;;9.40;;
17596;SDS011;8917;50.942;6.946;2023-04-06T12:32:58;12.63;;;8.60;;
17596;SDS011;8917;50.942;6.946;2023-04-06T12:35:25;13.93;;;8.87;;
17596;SDS011;8917;50.942;6.946;2023-04-06T12:37:56;13.43;;;8.93;;
17596;SDS011;8917;50.942;6.946;2023-04-06T12:40:26;14.93;;;8.87;;
17596;SDS011;8917;50.942;6.946;2023-04-06T12:42:53;13.40;;;9.67;;
17596;SDS011;8917;50.942;6.946;2023-04-06T12:45:20;14.67;;;9.00;;
17596;SDS011;8917;50.942;6.946;2023-04-06T12:47:48;11.73;;;8.17;;
17596;SDS011;8917;50.942;6.946;2023-04-06T12:50:15;17.33;;;9.70;;
17596;SDS011;8917;50.942;6.946;2023-04-06T12:52:46;13.07;;;9.87;;
17596;SDS011;8917;50.942;6.946;2023-04-06T12:55:15;16.23;;;10.10;;
17596;SDS011;8917;50.942;6.946;2023-04-06T12:57:48;13.93;;;8.77;;
17596;SDS011;8917;50.942;6.946;2023-04-06T13:00:16;11.90;;;8.60;;
17596;SDS011;8917;50.942;6.946;2023-04-06T13:02:44;10.17;;;7.20;;
17596;SDS011;8917;50.942;6.946;2023-04-06T13:05:14;10.97;;;8.07;;
17596;SDS011;8917;50.942;6.946;2023-04-06T13:07:44;11.73;;;6.97;;
17596;SDS011;8917;50.942;6.946;2023-04-06T13:10:12;13.57;;;7.40;;
17596;SDS011;8917;50.942;6.946;2023-04-06T13:12:41;10.23;;;7.17;;
17596;SDS011;8917;50.942;6.946;2023-04-06T13:15:09;11.93;;;7.83;;
17596;SDS011;8917;50.942;6.946;2023-04-06T13:17:36;10.67;;;8.03;;
17596;SDS011;8917;50.942;6.946;2023-04-06T13:20:03;10.90;;;7.50;;
17596;SDS011;8917;50.942;6.946;2023-04-06T13:22:37;8.67;;;7.50;;
17596;SDS011;8917;50.942;6.946;2023-04-06T13:25:05;10.57;;;7.53;;
17596;SDS011;8917;50.942;6.946;2023-04-06T13:27:36;10.23;;;6.60;;
17596;SDS011;8917;50.942;6.946;2023-04-06T13:30:05;9.17;;;7.00;;
17596;SDS011;8917;50.942;6.946;2023-04-06T13:32:37;10.23;;;7.57;;
17596;SDS011;8917;50.942;6.946;2023-04-06T13:35:04;10.53;;;7.60;;
17596;SDS011;8917;50.942;6.946;2023-04-06T13:37:35;8.13;;;6.73;;
17596;SDS011;8917;50.942;6.946;2023-04-06T13:40:02;9.27;;;7.17;;
17596;SDS011;8917;50.942;6.946;2023-04-06T13:42:30;12.53;;;8.10;;
17596;SDS011;8917;50.942;6.946;2023-04-06T13:45:00;13.13;;;8.20;;
17596;SDS011;8917;50.942;6.946;2023-04-06T13:47:34;10.30;;;7.67;;
17596;SDS011;8917;50.942;6.946;2023-04-06T13:50:01;11.60;;;7.10;;
17596;SDS011;8917;50.942;6.946;2023-04-06T13:52:28;12.73;;;6.83;;
17596;SDS011;8917;50.942;6.946;2023-04-06T13:54:56;13.00;;;7.30;;
17596;SDS011;8917;50.942;6.946;2023-04-06T13:57:32;10.77;;;6.83;;
17596;SDS011;8917;50.942;6.946;2023-04-06T14:00:01;10.67;;;6.90;;
17596;SDS011;8917;50.942;6.946;2023-04-06T14:02:29;9.87;;;6.30;;
17596;SDS011;8917;50.942;6.946;2023-04-06T14:04:58;9.07;;;6.43;;
17596;SDS011;8917;50.942;6.946;2023-04-06T14:07:25;8.77;;;6.83;;
17596;SDS011;8917;50.942;6.946;2023-04-06T14:09:52;10.80;;;6.83;;
17596;SDS011;8917;50.942;6.946;2023-04-06T14:12:19;8.80;;;6.70;;
17596;SDS011;8917;50.942;6.946;2023-04-06T14:14:49;8.97;;;6.80;;
17596;SDS011;8917;50.942;6.946;2023-04-06T14:17:19;10.17;;;6.17;;
17596;SDS011;8917;50.942;6.946;2023-04-06T14:19:50;8.43;;;6.90;;
17596;SDS011;8917;50.942;6.946;2023-04-06T14:22:19;9.50;;;6.80;;
17596;SDS011;8917;50.942;6.946;2023-04-06T14:24:46;9.37;;;6.97;;
17596;SDS011;8917;50.942;6.946;2023-04-06T14:27:14;9.53;;;6.60;;
17596;SDS011;8917;50.942;6.946;2023-04-06T14:29:44;5.93;;;5.20;;
17596;SDS011;8917;50.942;6.946;2023-04-06T14:32:11;6.27;;;5.27;;
17596;SDS011;8917;50.942;6.946;2023-04-06T14:34:42;10.23;;;6.50;;
17596;SDS011;8917;50.942;6.946;2023-04-06T14:37:10;7.63;;;5.50;;
17596;SDS011;8917;50.942;6.946;2023-04-06T14:39:39;6.83;;;5.87;;
17596;SDS011;8917;50.942;6.946;2023-04-06T14:42:09;10.77;;;7.30;;
17596;SDS011;8917;50.942;6.946;2023-04-06T14:44:36;9.90;;;7.10;;
17596;SDS011;8917;50.942;6.946;2023-04-06T14:47:07;8.10;;;6.30;;
17596;SDS011;8917;50.942;6.946;2023-04-06T14:49:36;8.73;;;5.33;;
17596;SDS011;8917;50.942;6.946;2023-04-06T14:52:04;8.03;;;5.50;;
17596;SDS011;8917;50.942;6.946;2023-04-06T14:54:37;6.13;;;4.23;;
17596;SDS011;8917;50.942;6.946;2023-04-06T14:57:06;5.43;;;4.90;;
17596;SDS011;8917;50.942;6.946;2023-04-06T14:59:33;5.90;;;4.67;;